createdAt,value
2018-12-07T00:00:33.363Z,26.90
2018-12-07T00:01:33.359Z,26.50
2018-12-07T00:02:33.372Z,25.50
2018-12-07T00:03:33.348Z,26.40
2018-12-07T00:04:33.315Z,26.70
2018-12-07T00:05:33.301Z,26.10
2018-12-07T00:06:33.295Z,27.00
2018-12-07T00:07:33.287Z,25.90
2018-12-07T00:08:33.296Z,25.20
2018-12-07T00:09:33.258Z,26.70
2018-12-07T00:10:33.250Z,26.10
2018-12-07T00:11:33.237Z,25.50
2018-12-07T00:12:33.223Z,26.20
2018-12-07T00:13:33.232Z,23.30
2018-12-07T00:14:33.207Z,23.20
2018-12-07T00:15:33.200Z,26.20
2018-12-07T00:16:33.185Z,23.90
2018-12-07T00:17:33.175Z,26.90
2018-12-07T00:18:33.510Z,23.20
2018-12-07T00:19:33.152Z,21.70
2018-12-07T00:20:33.142Z,23.30
2018-12-07T00:21:33.127Z,22.00
2018-12-07T00:22:33.111Z,24.30
2018-12-07T00:23:33.124Z,24.70
2018-12-07T00:24:33.158Z,23.20
2018-12-07T00:25:33.079Z,24.20
2018-12-07T00:26:33.077Z,25.20
2018-12-07T00:27:33.123Z,21.40
2018-12-07T00:28:33.900Z,23.80
2018-12-07T00:29:33.089Z,24.00
2018-12-07T00:30:33.021Z,24.50
2018-12-07T00:31:33.020Z,21.70
2018-12-07T00:32:33.193Z,22.20
2018-12-07T00:33:33.379Z,22.90
2018-12-07T00:34:33.232Z,22.30
2018-12-07T00:35:34.320Z,21.30
2018-12-07T00:36:33.902Z,20.60
2018-12-07T00:37:35.485Z,21.00
2018-12-07T00:40:38.677Z,20.10
2018-12-07T00:41:32.911Z,22.10
2018-12-07T00:42:32.919Z,22.00
2018-12-07T00:43:32.922Z,21.20
2018-12-07T00:44:32.893Z,22.40
2018-12-07T00:45:32.860Z,21.20
2018-12-07T00:46:32.857Z,20.30
2018-12-07T00:47:32.843Z,22.70
2018-12-07T00:48:32.845Z,20.10
2018-12-07T00:49:32.891Z,19.00
2018-12-07T00:50:32.809Z,20.80
2018-12-07T00:51:32.798Z,19.30
2018-12-07T00:52:32.778Z,21.20
2018-12-07T00:54:33.952Z,20.50
2018-12-07T00:55:32.919Z,21.80
2018-12-07T00:56:32.986Z,20.50
2018-12-07T00:57:32.911Z,18.80
2018-12-07T00:58:32.886Z,18.70
2018-12-07T00:59:32.895Z,19.30
2018-12-07T01:00:32.695Z,20.30
2018-12-07T01:01:32.681Z,19.70
2018-12-07T01:02:32.671Z,20.00
2018-12-07T01:03:32.671Z,19.80
2018-12-07T01:04:32.672Z,22.10
2018-12-07T01:05:32.645Z,20.20
2018-12-07T01:06:32.624Z,18.60
2018-12-07T01:07:32.616Z,17.30
2018-12-07T01:08:32.609Z,18.10
2018-12-07T01:09:32.655Z,17.50
2018-12-07T01:10:32.583Z,18.70
2018-12-07T01:11:32.572Z,19.00
2018-12-07T01:12:32.560Z,19.20
2018-12-07T01:13:32.550Z,20.10
2018-12-07T01:14:32.561Z,21.40
2018-12-07T01:15:32.528Z,18.80
2018-12-07T01:16:32.518Z,18.50
2018-12-07T01:17:32.509Z,19.50
2018-12-07T01:18:32.494Z,17.60
2018-12-07T01:19:32.502Z,18.40
2018-12-07T01:20:32.473Z,19.70
2018-12-07T01:21:32.470Z,19.40
2018-12-07T01:22:32.459Z,17.90
2018-12-07T01:23:32.438Z,18.10
2018-12-07T01:24:32.449Z,16.50
2018-12-07T01:25:32.425Z,19.00
2018-12-07T01:26:32.409Z,19.30
2018-12-07T01:27:32.395Z,17.10
2018-12-07T01:28:32.387Z,17.20
2018-12-07T01:29:32.395Z,18.20
2018-12-07T01:30:32.369Z,16.90
2018-12-07T01:31:32.345Z,18.10
2018-12-07T01:32:32.341Z,15.10
2018-12-07T01:33:32.323Z,15.00
2018-12-07T01:34:32.340Z,16.60
2018-12-07T01:35:32.302Z,17.40
2018-12-07T01:36:32.291Z,15.20
2018-12-07T01:37:32.281Z,16.50
2018-12-07T01:38:32.269Z,15.80
2018-12-07T01:39:32.254Z,15.30
2018-12-07T01:40:32.265Z,19.40
2018-12-07T01:41:32.235Z,14.40
2018-12-07T01:42:32.231Z,14.60
2018-12-07T01:43:32.217Z,15.60
2018-12-07T01:44:32.202Z,16.30
2018-12-07T01:45:32.215Z,16.10
2018-12-07T01:46:32.179Z,16.80
2018-12-07T01:47:32.175Z,16.50
2018-12-07T01:48:32.157Z,17.40
2018-12-07T01:49:32.145Z,15.40
2018-12-07T01:50:32.151Z,15.60
2018-12-07T01:51:32.135Z,15.00
2018-12-07T01:52:32.113Z,14.60
2018-12-07T01:53:32.109Z,15.10
2018-12-07T01:54:32.095Z,14.60
2018-12-07T01:55:32.097Z,14.60
2018-12-07T01:56:32.067Z,14.80
2018-12-07T01:57:32.063Z,13.10
2018-12-07T01:58:32.048Z,18.20
2018-12-07T01:59:32.035Z,14.00
2018-12-07T02:00:32.042Z,13.30
2018-12-07T02:01:32.011Z,15.60
2018-12-07T02:02:32.032Z,15.20
2018-12-07T02:03:32.002Z,14.20
2018-12-07T02:04:31.983Z,17.40
2018-12-07T02:05:31.993Z,14.90
2018-12-07T02:06:31.955Z,16.10
2018-12-07T02:07:31.956Z,14.60
2018-12-07T02:08:31.933Z,16.80
2018-12-07T02:09:31.923Z,13.70
2018-12-07T02:10:31.957Z,14.00
2018-12-07T02:11:31.902Z,14.90
2018-12-07T02:12:31.892Z,14.50
2018-12-07T02:13:31.879Z,16.90
2018-12-07T02:14:31.869Z,15.70
2018-12-07T02:15:31.877Z,13.70
2018-12-07T02:16:31.853Z,14.90
2018-12-07T02:17:31.831Z,15.90
2018-12-07T02:18:31.820Z,14.90
2018-12-07T02:19:31.813Z,17.50
2018-12-07T02:20:31.811Z,19.40
2018-12-07T02:21:31.794Z,18.60
2018-12-07T02:22:31.777Z,17.20
2018-12-07T02:23:31.766Z,15.10
2018-12-07T02:24:31.756Z,16.20
2018-12-07T02:25:31.759Z,15.40
2018-12-07T02:26:31.736Z,16.70
2018-12-07T02:27:31.728Z,15.90
2018-12-07T02:28:31.707Z,15.60
2018-12-07T02:29:31.701Z,15.90
2018-12-07T02:30:31.749Z,16.10
2018-12-07T02:31:31.682Z,15.40
2018-12-07T02:32:31.675Z,15.90
2018-12-07T02:33:31.657Z,16.00
2018-12-07T02:34:31.644Z,13.90
2018-12-07T02:35:31.633Z,15.30
2018-12-07T02:36:31.642Z,14.40
2018-12-07T02:37:31.612Z,13.80
2018-12-07T02:38:31.599Z,14.30
2018-12-07T02:39:31.665Z,16.30
2018-12-07T02:40:31.587Z,13.80
2018-12-07T02:41:31.671Z,15.20
2018-12-07T02:42:31.555Z,16.90
2018-12-07T02:43:31.546Z,16.00
2018-12-07T02:44:31.532Z,15.10
2018-12-07T02:45:31.533Z,14.30
2018-12-07T02:46:31.546Z,13.00
2018-12-07T02:47:31.503Z,16.20
2018-12-07T02:48:31.485Z,17.20
2018-12-07T02:49:31.471Z,15.30
2018-12-07T02:50:31.471Z,15.50
2018-12-07T02:51:31.473Z,15.80
2018-12-07T02:52:31.445Z,15.60
2018-12-07T02:53:31.446Z,14.60
2018-12-07T02:54:31.420Z,16.20
2018-12-07T02:55:31.411Z,14.10
2018-12-07T02:56:31.414Z,15.60
2018-12-07T02:57:31.392Z,15.90
2018-12-07T02:58:31.371Z,16.80
2018-12-07T02:59:31.364Z,15.40
2018-12-07T03:00:31.353Z,16.70
2018-12-07T03:01:31.352Z,16.60
2018-12-07T03:02:31.328Z,18.40
2018-12-07T03:03:31.320Z,16.50
2018-12-07T03:04:31.312Z,17.30
2018-12-07T03:05:31.302Z,18.40
2018-12-07T03:06:31.300Z,16.90
2018-12-07T03:07:31.278Z,19.80
2018-12-07T03:08:31.269Z,17.60
2018-12-07T03:09:31.256Z,20.50
2018-12-07T03:10:31.245Z,19.50
2018-12-07T03:11:31.250Z,20.70
2018-12-07T03:12:31.224Z,17.20
2018-12-07T03:13:31.210Z,21.50
2018-12-07T03:14:31.214Z,20.20
2018-12-07T03:15:31.209Z,20.30
2018-12-07T03:16:31.199Z,19.60
2018-12-07T03:17:31.167Z,21.00
2018-12-07T03:18:31.153Z,20.10
2018-12-07T03:19:31.139Z,19.70
2018-12-07T03:20:31.130Z,20.70
2018-12-07T03:21:31.146Z,21.10
2018-12-07T03:22:31.110Z,22.90
2018-12-07T03:23:31.102Z,23.30
2018-12-07T03:24:31.084Z,21.30
2018-12-07T03:25:31.082Z,22.80
2018-12-07T03:26:31.062Z,23.30
2018-12-07T03:27:31.068Z,23.30
2018-12-07T03:28:31.043Z,23.30
2018-12-07T03:29:31.037Z,22.40
2018-12-07T03:30:31.026Z,21.40
2018-12-07T03:31:31.013Z,22.00
2018-12-07T03:32:31.016Z,23.60
2018-12-07T03:33:30.983Z,25.10
2018-12-07T03:34:30.979Z,22.30
2018-12-07T03:35:30.965Z,25.40
2018-12-07T03:36:30.961Z,23.70
2018-12-07T03:37:30.954Z,22.90
2018-12-07T03:38:30.935Z,22.90
2018-12-07T03:39:30.917Z,22.80
2018-12-07T03:40:30.910Z,24.20
2018-12-07T03:41:30.896Z,27.80
2018-12-07T03:42:30.899Z,27.10
2018-12-07T03:43:30.876Z,26.80
2018-12-07T03:44:30.862Z,25.60
2018-12-07T03:45:30.856Z,27.40
2018-12-07T03:46:30.854Z,25.10
2018-12-07T03:47:30.847Z,28.90
2018-12-07T03:48:30.824Z,27.60
2018-12-07T03:49:30.810Z,26.50
2018-12-07T03:50:30.793Z,30.10
2018-12-07T03:51:30.786Z,29.30
2018-12-07T03:52:30.966Z,28.60
2018-12-07T03:53:30.760Z,28.90
2018-12-07T03:54:30.751Z,26.10
2018-12-07T03:55:30.735Z,26.90
2018-12-07T03:56:30.728Z,28.70
2018-12-07T03:57:30.737Z,25.00
2018-12-07T03:58:30.705Z,27.70
2018-12-07T03:59:30.694Z,27.60
2018-12-07T04:00:30.683Z,26.50
2018-12-07T04:01:30.675Z,28.20
2018-12-07T04:02:30.682Z,26.30
2018-12-07T04:03:30.677Z,27.10
2018-12-07T04:04:30.643Z,27.00
2018-12-07T04:05:30.629Z,25.90
2018-12-07T04:06:30.614Z,28.40
2018-12-07T04:07:30.624Z,28.80
2018-12-07T04:08:30.633Z,27.70
2018-12-07T04:09:30.583Z,29.00
2018-12-07T04:10:30.571Z,29.90
2018-12-07T04:11:30.565Z,25.00
2018-12-07T04:12:30.705Z,23.80
2018-12-07T04:13:30.542Z,23.70
2018-12-07T04:14:30.522Z,24.40
2018-12-07T04:15:30.516Z,25.60
2018-12-07T04:16:30.507Z,25.50
2018-12-07T04:17:30.517Z,24.50
2018-12-07T04:18:30.476Z,28.60
2018-12-07T04:19:30.474Z,27.10
2018-12-07T04:20:30.468Z,29.70
2018-12-07T04:21:30.453Z,24.40
2018-12-07T04:22:30.459Z,25.90
2018-12-07T04:23:30.427Z,25.30
2018-12-07T04:24:30.445Z,27.00
2018-12-07T04:25:30.412Z,25.00
2018-12-07T04:26:30.391Z,30.10
2018-12-07T04:27:30.385Z,28.00
2018-12-07T04:28:30.403Z,30.30
2018-12-07T04:29:30.378Z,25.50
2018-12-07T04:30:30.353Z,24.90
2018-12-07T04:31:30.338Z,27.50
2018-12-07T04:32:30.325Z,27.00
2018-12-07T04:33:30.336Z,25.70
2018-12-07T04:34:30.321Z,26.60
2018-12-07T04:35:30.324Z,29.70
2018-12-07T04:36:30.310Z,28.30
2018-12-07T04:37:30.271Z,26.30
2018-12-07T04:38:30.283Z,29.70
2018-12-07T04:39:30.248Z,28.10
2018-12-07T04:40:30.242Z,27.30
2018-12-07T04:41:30.227Z,28.50
2018-12-07T04:42:30.222Z,26.40
2018-12-07T04:43:30.233Z,28.20
2018-12-07T04:44:30.192Z,27.30
2018-12-07T04:45:30.180Z,28.60
2018-12-07T04:46:30.171Z,28.90
2018-12-07T04:47:30.158Z,29.90
2018-12-07T04:48:30.169Z,26.30
2018-12-07T04:49:30.137Z,28.50
2018-12-07T04:50:30.137Z,29.10
2018-12-07T04:51:30.128Z,30.70
2018-12-07T04:52:30.104Z,30.10
2018-12-07T04:53:30.115Z,32.20
2018-12-07T04:54:30.082Z,27.60
2018-12-07T04:55:30.074Z,32.20
2018-12-07T04:56:30.061Z,30.60
2018-12-07T04:57:30.052Z,32.00
2018-12-07T04:58:30.053Z,32.00
2018-12-07T04:59:30.023Z,31.40
2018-12-07T05:00:30.015Z,30.90
2018-12-07T05:01:29.999Z,28.90
2018-12-07T05:02:29.994Z,27.50
2018-12-07T05:03:30.002Z,28.90
2018-12-07T05:04:29.982Z,31.70
2018-12-07T05:05:29.961Z,32.10
2018-12-07T05:06:29.946Z,30.20
2018-12-07T05:07:29.937Z,32.90
2018-12-07T05:08:29.927Z,33.90
2018-12-07T05:09:29.933Z,31.70
2018-12-07T05:10:29.946Z,34.60
2018-12-07T05:11:29.894Z,32.00
2018-12-07T05:12:29.887Z,31.00
2018-12-07T05:13:29.869Z,32.30
2018-12-07T05:14:29.872Z,32.60
2018-12-07T05:15:29.848Z,35.80
2018-12-07T05:16:29.846Z,35.70
2018-12-07T05:17:29.828Z,35.50
2018-12-07T05:18:29.816Z,31.20
2018-12-07T05:19:29.821Z,35.90
2018-12-07T05:20:29.802Z,31.70
2018-12-07T05:21:29.781Z,34.00
2018-12-07T05:22:29.765Z,33.60
2018-12-07T05:23:29.757Z,35.20
2018-12-07T05:24:29.764Z,31.30
2018-12-07T05:25:29.739Z,34.70
2018-12-07T05:26:29.733Z,34.10
2018-12-07T05:27:29.710Z,32.10
2018-12-07T05:28:29.702Z,35.50
2018-12-07T05:29:29.708Z,37.70
2018-12-07T05:30:29.679Z,35.30
2018-12-07T05:31:29.666Z,34.90
2018-12-07T05:32:29.658Z,35.70
2018-12-07T05:33:29.646Z,37.80
2018-12-07T05:34:29.655Z,35.30
2018-12-07T05:35:29.626Z,35.80
2018-12-07T05:36:29.620Z,36.20
2018-12-07T05:37:29.609Z,35.00
2018-12-07T05:38:29.595Z,38.60
2018-12-07T05:39:29.609Z,40.20
2018-12-07T05:40:29.576Z,34.90
2018-12-07T05:41:29.552Z,33.30
2018-12-07T05:42:29.542Z,37.40
2018-12-07T05:43:29.547Z,30.00
2018-12-07T05:44:29.556Z,35.50
2018-12-07T05:45:29.513Z,36.30
2018-12-07T05:46:29.518Z,31.20
2018-12-07T05:47:29.490Z,34.90
2018-12-07T05:48:29.478Z,34.70
2018-12-07T05:49:29.488Z,31.20
2018-12-07T05:50:29.454Z,33.70
2018-12-07T05:51:29.443Z,30.00
2018-12-07T05:52:29.455Z,32.00
2018-12-07T05:53:29.430Z,31.70
2018-12-07T05:54:29.421Z,33.50
2018-12-07T05:55:29.432Z,30.00
2018-12-07T05:56:29.388Z,29.70
2018-12-07T05:57:29.408Z,27.40
2018-12-07T05:58:29.365Z,30.90
2018-12-07T05:59:29.364Z,29.70
2018-12-07T06:00:29.364Z,27.70
2018-12-07T06:01:29.353Z,35.40
2018-12-07T06:02:29.323Z,31.30
2018-12-07T06:03:29.316Z,32.80
2018-12-07T06:04:29.301Z,31.10
2018-12-07T06:05:29.307Z,32.60
2018-12-07T06:06:29.279Z,32.90
2018-12-07T06:07:29.265Z,33.30
2018-12-07T06:08:29.254Z,30.20
2018-12-07T06:09:29.248Z,30.70
2018-12-07T06:10:29.251Z,35.10
2018-12-07T06:11:29.235Z,29.40
2018-12-07T06:12:29.220Z,29.50
2018-12-07T06:13:29.195Z,30.60
2018-12-07T06:14:29.201Z,28.20
2018-12-07T06:15:29.199Z,30.10
2018-12-07T06:16:29.183Z,28.60
2018-12-07T06:17:29.155Z,31.00
2018-12-07T06:18:29.147Z,30.30
2018-12-07T06:19:29.135Z,29.80
2018-12-07T06:20:29.135Z,28.80
2018-12-07T06:21:29.126Z,29.60
2018-12-07T06:22:29.103Z,30.70
2018-12-07T06:23:29.095Z,30.80
2018-12-07T06:24:29.077Z,27.10
2018-12-07T06:25:29.081Z,30.20
2018-12-07T06:26:29.056Z,29.10
2018-12-07T06:27:29.045Z,27.50
2018-12-07T06:28:29.041Z,26.40
2018-12-07T06:29:29.045Z,25.40
2018-12-07T06:30:29.037Z,28.10
2018-12-07T06:31:28.995Z,28.90
2018-12-07T06:32:35.944Z,29.70
2018-12-07T06:33:30.003Z,26.80
2018-12-07T06:34:28.967Z,31.10
2018-12-07T06:35:28.973Z,26.80
2018-12-07T06:36:28.949Z,26.50
2018-12-07T06:37:28.937Z,26.90
2018-12-07T06:38:28.921Z,27.50
2018-12-07T06:39:28.919Z,26.50
2018-12-07T06:40:28.928Z,28.40
2018-12-07T06:41:28.885Z,29.10
2018-12-07T06:42:28.877Z,28.20
2018-12-07T06:43:28.862Z,32.50
2018-12-07T06:44:28.879Z,31.60
2018-12-07T06:45:28.863Z,26.50
2018-12-07T06:46:28.834Z,28.40
2018-12-07T06:47:28.818Z,31.10
2018-12-07T06:48:28.809Z,31.40
2018-12-07T06:49:28.819Z,31.50
2018-12-07T06:50:28.788Z,28.60
2018-12-07T06:51:28.794Z,32.20
2018-12-07T06:52:28.767Z,37.10
2018-12-07T06:53:28.755Z,30.80
2018-12-07T06:54:28.756Z,30.50
2018-12-07T06:55:28.733Z,30.10
2018-12-07T06:56:28.734Z,30.90
2018-12-07T06:57:28.726Z,34.70
2018-12-07T06:58:28.694Z,31.30
2018-12-07T06:59:28.687Z,27.30
2018-12-07T07:00:28.673Z,28.40
2018-12-07T07:01:28.696Z,26.40
2018-12-07T07:02:28.656Z,32.20
2018-12-07T07:03:28.644Z,30.20
2018-12-07T07:04:28.629Z,27.70
2018-12-07T07:05:28.776Z,29.20
2018-12-07T07:06:28.629Z,32.20
2018-12-07T07:07:28.598Z,29.90
2018-12-07T07:08:28.589Z,31.30
2018-12-07T07:09:28.573Z,29.30
2018-12-07T07:10:28.642Z,25.40
2018-12-07T07:11:28.568Z,29.90
2018-12-07T07:12:29.279Z,29.80
2018-12-07T07:13:28.530Z,30.00
2018-12-07T07:14:28.516Z,27.60
2018-12-07T07:15:28.509Z,26.60
2018-12-07T07:16:28.512Z,29.90
2018-12-07T07:17:28.484Z,28.30
2018-12-07T07:18:28.482Z,24.70
2018-12-07T07:19:28.462Z,28.10
2018-12-07T07:20:28.451Z,29.10
2018-12-07T07:21:28.452Z,27.80
2018-12-07T07:22:28.431Z,28.50
2018-12-07T07:23:28.420Z,26.00
2018-12-07T07:24:28.411Z,26.50
2018-12-07T07:25:28.396Z,26.50
2018-12-07T07:26:28.398Z,26.70
2018-12-07T07:27:28.370Z,27.40
2018-12-07T07:28:28.364Z,27.00
2018-12-07T07:29:28.352Z,29.70
2018-12-07T07:30:28.365Z,24.40
2018-12-07T07:31:28.358Z,26.90
2018-12-07T07:32:28.316Z,24.70
2018-12-07T07:33:28.307Z,23.80
2018-12-07T07:34:28.297Z,27.40
2018-12-07T07:35:28.292Z,25.80
2018-12-07T07:36:28.290Z,23.20
2018-12-07T07:37:28.267Z,25.10
2018-12-07T07:38:28.254Z,25.60
2018-12-07T07:39:28.239Z,25.70
2018-12-07T07:40:28.231Z,23.90
2018-12-07T07:41:28.236Z,22.50
2018-12-07T07:42:28.203Z,23.50
2018-12-07T07:43:28.201Z,25.70
2018-12-07T07:44:28.209Z,25.50
2018-12-07T07:45:28.176Z,23.40
2018-12-07T07:46:28.178Z,23.50
2018-12-07T07:47:28.156Z,23.20
2018-12-07T07:48:28.139Z,22.00
2018-12-07T07:49:28.133Z,21.50
2018-12-07T07:50:28.114Z,21.50
2018-12-07T07:51:28.129Z,20.90
2018-12-07T07:52:28.094Z,21.90
2018-12-07T07:53:28.080Z,20.40
2018-12-07T07:54:28.072Z,22.80
2018-12-07T07:55:28.058Z,21.90
2018-12-07T07:56:28.062Z,22.10
2018-12-07T07:57:28.045Z,23.20
2018-12-07T07:58:28.029Z,19.70
2018-12-07T07:59:28.017Z,22.60
2018-12-07T08:00:28.014Z,22.00
2018-12-07T08:01:28.008Z,21.00
2018-12-07T08:02:29.196Z,20.20
2018-12-07T08:03:27.974Z,21.10
2018-12-07T08:04:27.962Z,23.20
2018-12-07T08:05:27.956Z,18.80
2018-12-07T08:06:27.952Z,18.10
2018-12-07T08:07:27.939Z,17.10
2018-12-07T08:08:27.916Z,18.10
2018-12-07T08:09:27.920Z,20.30
2018-12-07T08:10:27.892Z,21.90
2018-12-07T08:11:27.898Z,26.30
2018-12-07T08:12:27.870Z,21.10
2018-12-07T08:13:27.860Z,23.30
2018-12-07T08:14:27.845Z,22.50
2018-12-07T08:15:27.931Z,16.60
2018-12-07T08:16:27.872Z,20.10
2018-12-07T08:17:27.818Z,17.70
2018-12-07T08:18:27.812Z,17.70
2018-12-07T08:19:27.794Z,16.70
2018-12-07T08:20:27.798Z,17.20
2018-12-07T08:21:27.770Z,16.80
2018-12-07T08:22:27.778Z,17.60
2018-12-07T08:23:27.744Z,18.40
2018-12-07T08:24:27.737Z,19.30
2018-12-07T08:25:27.724Z,16.80
2018-12-07T08:26:27.714Z,19.00
2018-12-07T08:27:27.722Z,16.20
2018-12-07T08:28:27.696Z,17.60
2018-12-07T08:29:27.684Z,17.80
2018-12-07T08:30:27.666Z,15.20
2018-12-07T08:31:27.696Z,16.50
2018-12-07T08:32:28.488Z,16.60
2018-12-07T08:33:27.685Z,17.00
2018-12-07T08:34:27.654Z,16.10
2018-12-07T08:35:27.696Z,14.90
2018-12-07T08:36:27.672Z,16.40
2018-12-07T08:37:27.723Z,15.00
2018-12-07T08:38:27.610Z,16.60
2018-12-07T08:39:27.638Z,15.50
2018-12-07T08:40:27.571Z,15.60
2018-12-07T08:41:27.637Z,14.80
2018-12-07T08:42:27.663Z,17.90
2018-12-07T08:43:27.559Z,15.30
2018-12-07T08:44:27.594Z,15.90
2018-12-07T08:45:27.501Z,16.30
2018-12-07T08:46:27.581Z,15.40
2018-12-07T08:47:27.663Z,15.40
2018-12-07T08:48:27.563Z,14.40
2018-12-07T08:49:27.554Z,13.30
2018-12-07T08:50:27.547Z,13.90
2018-12-07T08:51:27.503Z,16.20
2018-12-07T08:52:27.590Z,12.50
2018-12-07T08:53:27.457Z,11.80
2018-12-07T08:54:27.485Z,10.90
2018-12-07T08:55:27.443Z,12.30
2018-12-07T08:56:27.383Z,14.10
2018-12-07T08:57:27.532Z,12.40
2018-12-07T08:58:27.427Z,11.60
2018-12-07T08:59:27.447Z,11.60
2018-12-07T09:00:27.420Z,13.20
2018-12-07T09:01:27.393Z,13.80
2018-12-07T09:02:27.375Z,11.90
2018-12-07T09:03:27.445Z,12.50
2018-12-07T09:04:27.329Z,13.00
2018-12-07T09:05:27.341Z,11.50
2018-12-07T09:06:27.346Z,11.20
2018-12-07T09:07:27.277Z,10.50
2018-12-07T09:08:27.247Z,9.30
2018-12-07T09:09:27.327Z,12.30
2018-12-07T09:10:27.308Z,10.30
2018-12-07T09:11:27.272Z,10.20
2018-12-07T09:12:27.352Z,12.60
2018-12-07T09:13:27.218Z,11.20
2018-12-07T09:14:27.241Z,12.60
2018-12-07T09:15:27.217Z,10.60
2018-12-07T09:16:27.214Z,12.50
2018-12-07T09:17:27.341Z,12.00
2018-12-07T09:18:27.159Z,10.00
2018-12-07T09:19:27.159Z,11.30
2018-12-07T09:20:27.161Z,10.80
2018-12-07T09:21:27.994Z,12.00
2018-12-07T09:22:27.153Z,8.20
2018-12-07T09:23:27.251Z,11.50
2018-12-07T09:24:27.153Z,9.20
2018-12-07T09:25:27.124Z,10.00
2018-12-07T09:26:27.046Z,10.40
2018-12-07T09:27:27.036Z,9.50
2018-12-07T09:28:27.160Z,7.90
2018-12-07T09:29:27.014Z,9.10
2018-12-07T09:30:27.994Z,10.50
2018-12-07T09:31:27.052Z,9.20
2018-12-07T09:32:27.026Z,8.60
2018-12-07T09:33:27.100Z,9.60
2018-12-07T09:34:27.992Z,11.40
2018-12-07T09:35:26.950Z,9.20
2018-12-07T09:36:27.003Z,9.70
2018-12-07T09:37:28.837Z,8.20
2018-12-07T09:38:26.947Z,8.90
2018-12-07T09:39:26.953Z,10.80
2018-12-07T09:40:26.987Z,7.80
2018-12-07T09:41:26.950Z,7.60
2018-12-07T09:42:26.929Z,9.00
2018-12-07T09:43:27.049Z,9.80
2018-12-07T09:44:26.949Z,10.00
2018-12-07T09:45:26.889Z,7.40
2018-12-07T09:46:26.909Z,7.80
2018-12-07T09:47:27.497Z,9.30
2018-12-07T09:48:26.969Z,9.00
2018-12-07T09:49:26.949Z,6.80
2018-12-07T09:50:26.813Z,7.10
2018-12-07T09:51:26.829Z,9.30
2018-12-07T09:52:26.834Z,8.40
2018-12-07T09:53:26.918Z,8.30
2018-12-07T09:54:26.808Z,8.90
2018-12-07T09:55:26.806Z,6.50
2018-12-07T09:56:26.720Z,6.50
2018-12-07T09:57:26.703Z,7.00
2018-12-07T09:58:26.703Z,6.50
2018-12-07T09:59:26.678Z,7.30
2018-12-07T10:00:26.666Z,7.10
2018-12-07T10:01:26.654Z,8.40
2018-12-07T10:02:26.655Z,5.50
2018-12-07T10:03:26.670Z,7.40
2018-12-07T10:04:26.635Z,5.90
2018-12-07T10:05:26.608Z,6.20
2018-12-07T10:06:26.595Z,5.20
2018-12-07T10:07:26.597Z,8.20
2018-12-07T10:08:26.598Z,6.20
2018-12-07T10:09:26.566Z,7.10
2018-12-07T10:10:26.549Z,7.00
2018-12-07T10:11:26.538Z,6.90
2018-12-07T10:12:26.537Z,8.10
2018-12-07T10:13:26.538Z,6.20
2018-12-07T10:14:26.507Z,8.00
2018-12-07T10:15:26.499Z,6.60
2018-12-07T10:16:26.484Z,5.50
2018-12-07T10:17:26.478Z,7.40
2018-12-07T10:18:26.553Z,7.00
2018-12-07T10:19:26.457Z,5.50
2018-12-07T10:20:26.458Z,5.10
2018-12-07T10:21:26.430Z,5.20
2018-12-07T10:22:26.414Z,6.80
2018-12-07T10:23:26.432Z,5.50
2018-12-07T10:24:26.407Z,4.60
2018-12-07T10:25:26.416Z,5.20
2018-12-07T10:26:26.375Z,5.30
2018-12-07T10:27:26.408Z,6.50
2018-12-07T10:28:26.354Z,5.20
2018-12-07T10:29:26.378Z,5.10
2018-12-07T10:30:26.345Z,3.80
2018-12-07T10:31:26.329Z,5.40
2018-12-07T10:32:26.310Z,6.70
2018-12-07T10:33:26.296Z,5.10
2018-12-07T10:34:26.310Z,4.60
2018-12-07T10:35:26.283Z,6.00
2018-12-07T10:36:26.268Z,6.20
2018-12-07T10:37:26.254Z,5.90
2018-12-07T10:38:26.241Z,5.90
2018-12-07T10:39:26.254Z,5.10
2018-12-07T10:40:26.226Z,3.70
2018-12-07T10:41:26.214Z,4.60
2018-12-07T10:42:26.209Z,3.80
2018-12-07T10:43:26.185Z,4.90
2018-12-07T10:44:27.824Z,5.00
2018-12-07T10:45:26.242Z,4.40
2018-12-07T10:46:26.180Z,5.60
2018-12-07T10:47:26.141Z,5.50
2018-12-07T10:48:26.127Z,4.70
2018-12-07T10:49:26.130Z,4.90
2018-12-07T10:50:26.101Z,4.20
2018-12-07T10:51:26.094Z,5.30
2018-12-07T10:52:26.086Z,3.10
2018-12-07T10:53:26.082Z,4.00
2018-12-07T10:54:26.079Z,3.60
2018-12-07T10:55:26.048Z,3.80
2018-12-07T10:56:26.039Z,3.10
2018-12-07T10:57:26.048Z,3.80
2018-12-07T10:58:26.024Z,5.00
2018-12-07T10:59:26.033Z,4.40
2018-12-07T11:00:26.003Z,4.00
2018-12-07T11:01:25.989Z,3.90
2018-12-07T11:02:25.989Z,3.60
2018-12-07T11:03:25.962Z,2.60
2018-12-07T11:04:25.973Z,3.70
2018-12-07T11:05:25.941Z,3.00
2018-12-07T11:06:25.927Z,6.00
2018-12-07T11:07:25.930Z,3.40
2018-12-07T11:08:25.908Z,3.40
2018-12-07T11:09:25.930Z,2.60
2018-12-07T11:10:25.886Z,4.90
2018-12-07T11:11:25.884Z,2.60
2018-12-07T11:12:25.868Z,5.30
2018-12-07T11:13:25.846Z,2.50
2018-12-07T11:14:25.849Z,4.10
2018-12-07T11:15:25.845Z,3.80
2018-12-07T11:16:25.826Z,2.30
2018-12-07T11:17:25.800Z,3.70
2018-12-07T11:18:25.961Z,4.90
2018-12-07T11:19:25.780Z,5.70
2018-12-07T11:20:25.794Z,3.30
2018-12-07T11:21:25.764Z,5.70
2018-12-07T11:22:25.764Z,3.00
2018-12-07T11:23:25.741Z,4.00
2018-12-07T11:24:25.723Z,2.60
2018-12-07T11:25:25.738Z,3.30
2018-12-07T11:26:25.706Z,3.80
2018-12-07T11:27:25.698Z,2.50
2018-12-07T11:28:25.680Z,3.30
2018-12-07T11:29:25.671Z,2.40
2018-12-07T11:30:25.679Z,2.40
2018-12-07T11:31:25.650Z,2.70
2018-12-07T11:32:25.641Z,2.00
2018-12-07T11:33:25.629Z,2.30
2018-12-07T11:34:25.618Z,2.50
2018-12-07T11:35:25.626Z,2.60
2018-12-07T11:36:25.598Z,2.70
2018-12-07T11:37:25.591Z,2.30
2018-12-07T11:38:25.576Z,1.90
2018-12-07T11:39:25.568Z,10.40
2018-12-07T11:40:25.604Z,2.20
2018-12-07T11:41:25.545Z,3.40
2018-12-07T11:42:25.538Z,3.00
2018-12-07T11:43:25.514Z,3.90
2018-12-07T11:44:25.505Z,4.10
2018-12-07T11:45:25.509Z,3.60
2018-12-07T11:46:25.484Z,2.20
2018-12-07T11:47:25.469Z,2.40
2018-12-07T11:48:25.477Z,3.90
2018-12-07T11:49:25.452Z,2.40
2018-12-07T11:50:25.461Z,2.80
2018-12-07T11:51:25.430Z,3.60
2018-12-07T11:52:25.417Z,1.90
2018-12-07T11:53:25.398Z,3.20
2018-12-07T11:54:25.392Z,3.60
2018-12-07T11:55:25.401Z,2.20
2018-12-07T11:56:25.369Z,2.90
2018-12-07T11:57:25.356Z,1.80
2018-12-07T11:58:25.344Z,1.90
2018-12-07T11:59:25.335Z,2.20
2018-12-07T12:00:25.352Z,3.20
2018-12-07T12:01:25.327Z,3.20
2018-12-07T12:02:26.500Z,2.80
2018-12-07T12:03:25.294Z,2.50
2018-12-07T12:04:25.298Z,7.90
2018-12-07T12:05:25.289Z,7.50
2018-12-07T12:06:25.264Z,3.60
2018-12-07T12:07:25.245Z,3.50
2018-12-07T12:08:25.238Z,2.20
2018-12-07T12:09:25.257Z,2.30
2018-12-07T12:10:25.213Z,2.00
2018-12-07T12:11:25.207Z,2.30
2018-12-07T12:12:25.197Z,2.10
2018-12-07T12:13:25.181Z,2.50
2018-12-07T12:14:25.167Z,2.30
2018-12-07T12:15:25.179Z,2.00
2018-12-07T12:16:25.147Z,2.50
2018-12-07T12:17:25.136Z,3.30
2018-12-07T12:18:25.122Z,3.80
2018-12-07T12:19:25.112Z,3.70
2018-12-07T12:20:25.125Z,3.00
2018-12-07T12:21:25.089Z,2.50
2018-12-07T12:22:25.088Z,3.80
2018-12-07T12:23:25.067Z,3.40
2018-12-07T12:24:25.078Z,2.60
2018-12-07T12:25:25.083Z,5.50
2018-12-07T12:26:25.036Z,2.80
2018-12-07T12:27:25.029Z,3.90
2018-12-07T12:28:25.019Z,3.00
2018-12-07T12:29:25.003Z,3.20
2018-12-07T12:30:25.006Z,3.30
2018-12-07T12:31:24.993Z,3.10
2018-12-07T12:34:44.125Z,3.10
2018-12-07T13:10:59.839Z,5.00
2018-12-07T13:11:59.837Z,4.00
2018-12-07T13:13:22.825Z,2.50
2018-12-07T13:13:59.795Z,3.50
2018-12-07T13:14:59.780Z,3.60
2018-12-07T13:15:59.773Z,3.20
2018-12-07T13:16:59.789Z,4.00
2018-12-07T13:17:59.753Z,4.20
2018-12-07T13:18:59.744Z,4.00
2018-12-07T13:19:59.729Z,4.40
2018-12-07T13:20:59.717Z,3.30
2018-12-07T13:21:59.727Z,4.80
2018-12-07T13:22:59.700Z,3.20
2018-12-07T13:23:59.703Z,5.00
2018-12-07T13:24:59.673Z,4.40
2018-12-07T13:25:59.685Z,3.30
2018-12-07T13:26:59.695Z,5.70
2018-12-07T13:27:59.633Z,4.20
2018-12-07T13:28:59.631Z,4.10
2018-12-07T13:29:59.698Z,5.20
2018-12-07T13:30:59.606Z,4.20
2018-12-07T13:31:59.592Z,3.50
2018-12-07T13:32:59.597Z,5.20
2018-12-07T13:33:59.571Z,4.60
2018-12-07T13:34:59.571Z,6.50
2018-12-07T13:35:59.552Z,4.40
2018-12-07T13:36:59.540Z,6.40
2018-12-07T13:37:59.835Z,5.20
2018-12-07T13:38:59.548Z,5.70
2018-12-07T13:39:59.538Z,6.10